sensor_id;sensor_type;location;lat;lon;timestamp;temperature;humidity
21744;DHT22;11034;48.556;9.342;2023-04-29T00:00:08;13.10;99.90
21744;DHT22;11034;48.556;9.342;2023-04-29T00:02:38;13.10;99.90
21744;DHT22;11034;48.556;9.342;2023-04-29T00:05:06;13.10;99.90
21744;DHT22;11034;48.556;9.342;2023-04-29T00:07:35;13.00;99.90
21744;DHT22;11034;48.556;9.342;2023-04-29T00:10:04;13.00;99.90
21744;DHT22;11034;48.556;9.342;2023-04-29T00:12:32;13.10;99.90
21744;DHT22;11034;48.556;9.342;2023-04-29T00:15:00;13.10;99.90
21744;DHT22;11034;48.556;9.342;2023-04-29T00:17:30;13.00;99.90
21744;DHT22;11034;48.556;9.342;2023-04-29T00:19:59;13.10;99.90
21744;DHT22;11034;48.556;9.342;2023-04-29T00:22:28;13.00;99.90
21744;DHT22;11034;48.556;9.342;2023-04-29T00:24:55;13.00;99.90
21744;DHT22;11034;48.556;9.342;2023-04-29T00:27:23;13.00;99.90
21744;DHT22;11034;48.556;9.342;2023-04-29T00:29:52;13.00;99.90
21744;DHT22;11034;48.556;9.342;2023-04-29T00:32:20;13.00;99.90
21744;DHT22;11034;48.556;9.342;2023-04-29T00:34:48;13.00;99.90
21744;DHT22;11034;48.556;9.342;2023-04-29T00:37:18;13.00;99.90
21744;DHT22;11034;48.556;9.342;2023-04-29T00:39:46;12.90;99.90
21744;DHT22;11034;48.556;9.342;2023-04-29T00:42:15;12.90;99.90
21744;DHT22;11034;48.556;9.342;2023-04-29T00:44:43;12.90;99.90
21744;DHT22;11034;48.556;9.342;2023-04-29T00:47:11;12.90;99.90
21744;DHT22;11034;48.556;9.342;2023-04-29T00:49:39;12.80;99.90
21744;DHT22;11034;48.556;9.342;2023-04-29T00:52:09;12.80;99.90
21744;DHT22;11034;48.556;9.342;2023-04-29T00:54:40;12.90;99.90
21744;DHT22;11034;48.556;9.342;2023-04-29T00:57:08;12.90;99.90
21744;DHT22;11034;48.556;9.342;2023-04-29T00:59:36;12.90;99.90
21744;DHT22;11034;48.556;9.342;2023-04-29T01:02:05;12.90;99.90
21744;DHT22;11034;48.556;9.342;2023-04-29T01:04:33;12.90;99.90
21744;DHT22;11034;48.556;9.342;2023-04-29T01:07:11;12.90;99.90
21744;DHT22;11034;48.556;9.342;2023-04-29T01:09:52;12.90;99.90
21744;DHT22;11034;48.556;9.342;2023-04-29T01:12:32;12.80;99.90
21744;DHT22;11034;48.556;9.342;2023-04-29T01:15:07;12.80;99.90
21744;DHT22;11034;48.556;9.342;2023-04-29T01:17:40;12.80;99.90
21744;DHT22;11034;48.556;9.342;2023-04-29T01:20:11;12.70;99.90
21744;DHT22;11034;48.556;9.342;2023-04-29T01:22:40;12.70;99.90
21744;DHT22;11034;48.556;9.342;2023-04-29T01:25:10;12.70;99.90
21744;DHT22;11034;48.556;9.342;2023-04-29T01:27:45;12.70;99.90
21744;DHT22;11034;48.556;9.342;2023-04-29T01:30:21;12.60;99.90
21744;DHT22;11034;48.556;9.342;2023-04-29T01:32:54;12.60;99.90
21744;DHT22;11034;48.556;9.342;2023-04-29T01:35:37;12.60;99.90
21744;DHT22;11034;48.556;9.342;2023-04-29T01:38:16;12.60;99.90
21744;DHT22;11034;48.556;9.342;2023-04-29T01:40:55;12.60;99.90
21744;DHT22;11034;48.556;9.342;2023-04-29T01:43:29;12.60;99.90
21744;DHT22;11034;48.556;9.342;2023-04-29T01:46:00;12.50;99.90
21744;DHT22;11034;48.556;9.342;2023-04-29T01:48:29;12.50;99.90
21744;DHT22;11034;48.556;9.342;2023-04-29T01:50:58;12.50;99.90
21744;DHT22;11034;48.556;9.342;2023-04-29T01:53:27;12.60;99.90
21744;DHT22;11034;48.556;9.342;2023-04-29T01:55:56;12.50;99.90
21744;DHT22;11034;48.556;9.342;2023-04-29T01:58:24;12.50;99.90
21744;DHT22;11034;48.556;9.342;2023-04-29T02:00:52;12.50;99.90
21744;DHT22;11034;48.556;9.342;2023-04-29T02:03:20;12.50;99.90
21744;DHT22;11034;48.556;9.342;2023-04-29T02:05:48;12.60;99.90
21744;DHT22;11034;48.556;9.342;2023-04-29T02:08:17;12.50;99.90
21744;DHT22;11034;48.556;9.342;2023-04-29T02:10:51;12.50;99.90
21744;DHT22;11034;48.556;9.342;2023-04-29T02:13:21;12.50;99.90
21744;DHT22;11034;48.556;9.342;2023-04-29T02:15:49;12.50;99.90
21744;DHT22;11034;48.556;9.342;2023-04-29T02:18:17;12.50;99.90
21744;DHT22;11034;48.556;9.342;2023-04-29T02:20:45;12.40;99.90
21744;DHT22;11034;48.556;9.342;2023-04-29T02:23:13;12.40;99.90
21744;DHT22;11034;48.556;9.342;2023-04-29T02:25:41;12.40;99.90
21744;DHT22;11034;48.556;9.342;2023-04-29T02:28:09;12.40;99.90
21744;DHT22;11034;48.556;9.342;2023-04-29T02:30:39;12.40;99.90
21744;DHT22;11034;48.556;9.342;2023-04-29T02:33:07;12.30;99.90
21744;DHT22;11034;48.556;9.342;2023-04-29T02:35:35;12.30;99.90
21744;DHT22;11034;48.556;9.342;2023-04-29T02:38:03;12.30;99.90
21744;DHT22;11034;48.556;9.342;2023-04-29T02:40:31;12.30;99.90
21744;DHT22;11034;48.556;9.342;2023-04-29T02:42:59;12.30;99.90
21744;DHT22;11034;48.556;9.342;2023-04-29T02:45:27;12.30;99.90
21744;DHT22;11034;48.556;9.342;2023-04-29T02:47:57;12.30;99.90
21744;DHT22;11034;48.556;9.342;2023-04-29T02:50:25;12.30;99.90
21744;DHT22;11034;48.556;9.342;2023-04-29T02:52:54;12.30;99.90
21744;DHT22;11034;48.556;9.342;2023-04-29T02:55:22;12.30;99.90
21744;DHT22;11034;48.556;9.342;2023-04-29T02:57:50;12.30;99.90
21744;DHT22;11034;48.556;9.342;2023-04-29T03:00:19;12.30;99.90
21744;DHT22;11034;48.556;9.342;2023-04-29T03:02:47;12.20;99.90
21744;DHT22;11034;48.556;9.342;2023-04-29T03:05:17;12.20;99.90
21744;DHT22;11034;48.556;9.342;2023-04-29T03:07:45;12.10;99.90
21744;DHT22;11034;48.556;9.342;2023-04-29T03:10:13;12.10;99.90
21744;DHT22;11034;48.556;9.342;2023-04-29T03:12:41;12.10;99.90
21744;DHT22;11034;48.556;9.342;2023-04-29T03:15:09;12.10;99.90
21744;DHT22;11034;48.556;9.342;2023-04-29T03:17:39;12.10;99.90
21744;DHT22;11034;48.556;9.342;2023-04-29T03:20:07;12.10;99.90
21744;DHT22;11034;48.556;9.342;2023-04-29T03:22:38;12.10;99.90
21744;DHT22;11034;48.556;9.342;2023-04-29T03:25:07;12.10;99.90
21744;DHT22;11034;48.556;9.342;2023-04-29T03:27:36;12.00;99.90
21744;DHT22;11034;48.556;9.342;2023-04-29T03:30:06;12.00;99.90
21744;DHT22;11034;48.556;9.342;2023-04-29T03:32:34;12.00;99.90
21744;DHT22;11034;48.556;9.342;2023-04-29T03:35:03;11.90;99.90
21744;DHT22;11034;48.556;9.342;2023-04-29T03:37:31;11.90;99.90
21744;DHT22;11034;48.556;9.342;2023-04-29T03:40:00;11.80;99.90
21744;DHT22;11034;48.556;9.342;2023-04-29T03:42:28;11.80;99.90
21744;DHT22;11034;48.556;9.342;2023-04-29T03:44:56;11.80;99.90
21744;DHT22;11034;48.556;9.342;2023-04-29T03:47:24;11.80;99.90
21744;DHT22;11034;48.556;9.342;2023-04-29T03:49:52;11.70;99.90
21744;DHT22;11034;48.556;9.342;2023-04-29T03:52:20;11.70;99.90
21744;DHT22;11034;48.556;9.342;2023-04-29T03:54:48;11.70;99.90
21744;DHT22;11034;48.556;9.342;2023-04-29T03:57:18;11.60;99.90
21744;DHT22;11034;48.556;9.342;2023-04-29T03:59:46;11.60;99.90
21744;DHT22;11034;48.556;9.342;2023-04-29T04:02:16;11.70;99.90
21744;DHT22;11034;48.556;9.342;2023-04-29T04:04:45;11.80;99.90
21744;DHT22;11034;48.556;9.342;2023-04-29T04:07:19;11.80;99.90
21744;DHT22;11034;48.556;9.342;2023-04-29T04:09:50;11.80;99.90
21744;DHT22;11034;48.556;9.342;2023-04-29T04:12:20;11.80;99.90
21744;DHT22;11034;48.556;9.342;2023-04-29T04:14:48;11.90;99.90
21744;DHT22;11034;48.556;9.342;2023-04-29T04:17:16;11.90;99.90
21744;DHT22;11034;48.556;9.342;2023-04-29T04:19:44;11.90;99.90
21744;DHT22;11034;48.556;9.342;2023-04-29T04:22:12;11.90;99.90
21744;DHT22;11034;48.556;9.342;2023-04-29T04:24:40;11.80;99.90
21744;DHT22;11034;48.556;9.342;2023-04-29T04:27:10;11.80;99.90
21744;DHT22;11034;48.556;9.342;2023-04-29T04:29:40;11.80;99.90
21744;DHT22;11034;48.556;9.342;2023-04-29T04:32:08;11.80;99.90
21744;DHT22;11034;48.556;9.342;2023-04-29T04:34:36;11.80;99.90
21744;DHT22;11034;48.556;9.342;2023-04-29T04:37:05;11.90;99.90
21744;DHT22;11034;48.556;9.342;2023-04-29T04:39:33;11.90;99.90
21744;DHT22;11034;48.556;9.342;2023-04-29T04:42:01;11.90;99.90
21744;DHT22;11034;48.556;9.342;2023-04-29T04:44:29;12.00;99.90
21744;DHT22;11034;48.556;9.342;2023-04-29T04:46:59;12.10;99.90
21744;DHT22;11034;48.556;9.342;2023-04-29T04:49:28;12.20;99.90
21744;DHT22;11034;48.556;9.342;2023-04-29T04:51:56;12.50;99.90
21744;DHT22;11034;48.556;9.342;2023-04-29T04:54:24;13.20;99.90
21744;DHT22;11034;48.556;9.342;2023-04-29T04:56:52;14.00;99.90
21744;DHT22;11034;48.556;9.342;2023-04-29T04:59:20;14.80;99.90
21744;DHT22;11034;48.556;9.342;2023-04-29T05:01:48;15.40;99.90
21744;DHT22;11034;48.556;9.342;2023-04-29T05:04:17;15.80;99.90
21744;DHT22;11034;48.556;9.342;2023-04-29T05:06:46;16.30;99.90
21744;DHT22;11034;48.556;9.342;2023-04-29T05:09:14;16.30;99.90
21744;DHT22;11034;48.556;9.342;2023-04-29T05:11:42;16.00;99.90
21744;DHT22;11034;48.556;9.342;2023-04-29T05:14:10;16.30;99.90
21744;DHT22;11034;48.556;9.342;2023-04-29T05:16:38;16.60;99.90
21744;DHT22;11034;48.556;9.342;2023-04-29T05:19:06;16.60;99.90
21744;DHT22;11034;48.556;9.342;2023-04-29T05:21:37;16.70;99.90
21744;DHT22;11034;48.556;9.342;2023-04-29T05:24:05;16.70;99.90
21744;DHT22;11034;48.556;9.342;2023-04-29T05:26:34;16.80;99.90
21744;DHT22;11034;48.556;9.342;2023-04-29T05:29:02;17.10;99.90
21744;DHT22;11034;48.556;9.342;2023-04-29T05:31:30;17.60;99.90
21744;DHT22;11034;48.556;9.342;2023-04-29T05:33:59;18.10;99.90
21744;DHT22;11034;48.556;9.342;2023-04-29T05:36:27;17.90;99.90
21744;DHT22;11034;48.556;9.342;2023-04-29T05:38:56;18.40;99.90
21744;DHT22;11034;48.556;9.342;2023-04-29T05:41:24;18.40;99.90
21744;DHT22;11034;48.556;9.342;2023-04-29T05:43:52;18.80;99.90
21744;DHT22;11034;48.556;9.342;2023-04-29T05:46:20;19.00;99.90
21744;DHT22;11034;48.556;9.342;2023-04-29T05:48:49;19.30;99.90
21744;DHT22;11034;48.556;9.342;2023-04-29T05:51:17;19.20;99.90
21744;DHT22;11034;48.556;9.342;2023-04-29T05:53:45;18.30;99.90
21744;DHT22;11034;48.556;9.342;2023-04-29T05:56:15;17.30;99.90
21744;DHT22;11034;48.556;9.342;2023-04-29T05:58:50;16.40;99.90
21744;DHT22;11034;48.556;9.342;2023-04-29T06:01:21;16.60;99.90
21744;DHT22;11034;48.556;9.342;2023-04-29T06:03:49;18.10;99.90
21744;DHT22;11034;48.556;9.342;2023-04-29T06:06:18;20.10;99.90
21744;DHT22;11034;48.556;9.342;2023-04-29T06:08:46;21.00;99.90
21744;DHT22;11034;48.556;9.342;2023-04-29T06:11:15;21.20;99.90
21744;DHT22;11034;48.556;9.342;2023-04-29T06:13:43;21.90;99.90
21744;DHT22;11034;48.556;9.342;2023-04-29T06:16:11;21.10;99.90
21744;DHT22;11034;48.556;9.342;2023-04-29T06:18:39;21.40;99.90
21744;DHT22;11034;48.556;9.342;2023-04-29T06:21:07;20.60;99.90
21744;DHT22;11034;48.556;9.342;2023-04-29T06:23:35;19.70;99.90
21744;DHT22;11034;48.556;9.342;2023-04-29T06:26:03;19.40;99.90
21744;DHT22;11034;48.556;9.342;2023-04-29T06:28:32;18.50;99.90
21744;DHT22;11034;48.556;9.342;2023-04-29T06:31:00;17.30;99.90
21744;DHT22;11034;48.556;9.342;2023-04-29T06:33:28;16.70;99.90
21744;DHT22;11034;48.556;9.342;2023-04-29T06:35:57;15.80;99.90
21744;DHT22;11034;48.556;9.342;2023-04-29T06:38:28;15.50;99.90
21744;DHT22;11034;48.556;9.342;2023-04-29T06:41:00;15.40;99.90
21744;DHT22;11034;48.556;9.342;2023-04-29T06:43:28;15.30;99.90
21744;DHT22;11034;48.556;9.342;2023-04-29T06:45:57;15.20;99.90
21744;DHT22;11034;48.556;9.342;2023-04-29T06:48:25;14.80;99.90
21744;DHT22;11034;48.556;9.342;2023-04-29T06:50:55;14.80;99.90
21744;DHT22;11034;48.556;9.342;2023-04-29T06:53:23;14.80;99.90
21744;DHT22;11034;48.556;9.342;2023-04-29T06:55:51;14.90;99.90
21744;DHT22;11034;48.556;9.342;2023-04-29T06:58:20;15.00;99.90
21744;DHT22;11034;48.556;9.342;2023-04-29T07:00:49;14.80;99.90
21744;DHT22;11034;48.556;9.342;2023-04-29T07:03:18;14.70;99.90
21744;DHT22;11034;48.556;9.342;2023-04-29T07:05:47;14.80;99.90
21744;DHT22;11034;48.556;9.342;2023-04-29T07:08:15;14.80;99.90
21744;DHT22;11034;48.556;9.342;2023-04-29T07:10:43;15.00;99.90
21744;DHT22;11034;48.556;9.342;2023-04-29T07:13:12;15.00;99.90
21744;DHT22;11034;48.556;9.342;2023-04-29T07:15:54;15.10;99.90
21744;DHT22;11034;48.556;9.342;2023-04-29T07:18:28;14.80;99.90
21744;DHT22;11034;48.556;9.342;2023-04-29T07:21:00;14.50;99.90
21744;DHT22;11034;48.556;9.342;2023-04-29T07:23:28;14.20;99.90
21744;DHT22;11034;48.556;9.342;2023-04-29T07:25:56;14.30;99.90
21744;DHT22;11034;48.556;9.342;2023-04-29T07:28:24;15.00;99.90
21744;DHT22;11034;48.556;9.342;2023-04-29T07:30:52;15.20;99.90
21744;DHT22;11034;48.556;9.342;2023-04-29T07:33:20;15.90;99.90
21744;DHT22;11034;48.556;9.342;2023-04-29T07:35:49;16.80;99.90
21744;DHT22;11034;48.556;9.342;2023-04-29T07:38:17;17.60;99.90
21744;DHT22;11034;48.556;9.342;2023-04-29T07:40:47;18.70;99.90
21744;DHT22;11034;48.556;9.342;2023-04-29T07:43:15;19.70;99.90
21744;DHT22;11034;48.556;9.342;2023-04-29T07:45:42;20.00;99.90
21744;DHT22;11034;48.556;9.342;2023-04-29T07:48:10;20.50;99.90
21744;DHT22;11034;48.556;9.342;2023-04-29T07:50:38;20.90;99.90
21744;DHT22;11034;48.556;9.342;2023-04-29T07:53:08;21.20;99.90
21744;DHT22;11034;48.556;9.342;2023-04-29T07:55:36;21.30;99.90
21744;DHT22;11034;48.556;9.342;2023-04-29T07:58:04;20.20;99.90
21744;DHT22;11034;48.556;9.342;2023-04-29T08:00:32;18.90;99.90
21744;DHT22;11034;48.556;9.342;2023-04-29T08:03:00;18.40;99.90
21744;DHT22;11034;48.556;9.342;2023-04-29T08:05:29;18.40;99.90
21744;DHT22;11034;48.556;9.342;2023-04-29T08:07:57;18.20;99.90
21744;DHT22;11034;48.556;9.342;2023-04-29T08:10:27;17.80;99.90
21744;DHT22;11034;48.556;9.342;2023-04-29T08:12:55;17.10;99.90
21744;DHT22;11034;48.556;9.342;2023-04-29T08:15:23;16.30;99.90
21744;DHT22;11034;48.556;9.342;2023-04-29T08:17:51;15.90;99.90
21744;DHT22;11034;48.556;9.342;2023-04-29T08:20:20;15.70;99.90
21744;DHT22;11034;48.556;9.342;2023-04-29T08:22:48;16.00;99.90
21744;DHT22;11034;48.556;9.342;2023-04-29T08:25:16;16.50;99.90
21744;DHT22;11034;48.556;9.342;2023-04-29T08:27:45;16.60;99.90
21744;DHT22;11034;48.556;9.342;2023-04-29T08:30:13;16.80;99.90
21744;DHT22;11034;48.556;9.342;2023-04-29T08:32:41;17.00;99.90
21744;DHT22;11034;48.556;9.342;2023-04-29T08:35:11;16.80;99.90
21744;DHT22;11034;48.556;9.342;2023-04-29T08:37:39;16.50;99.90
21744;DHT22;11034;48.556;9.342;2023-04-29T08:40:08;16.10;99.90
21744;DHT22;11034;48.556;9.342;2023-04-29T08:42:36;15.80;99.90
21744;DHT22;11034;48.556;9.342;2023-04-29T08:45:07;15.80;99.90
21744;DHT22;11034;48.556;9.342;2023-04-29T08:47:35;15.80;99.90
21744;DHT22;11034;48.556;9.342;2023-04-29T08:50:06;15.90;99.90
21744;DHT22;11034;48.556;9.342;2023-04-29T08:52:34;16.30;99.90
21744;DHT22;11034;48.556;9.342;2023-04-29T08:55:02;16.60;99.90
21744;DHT22;11034;48.556;9.342;2023-04-29T08:57:34;16.90;99.90
21744;DHT22;11034;48.556;9.342;2023-04-29T09:00:08;17.20;99.90
21744;DHT22;11034;48.556;9.342;2023-04-29T09:02:43;17.30;99.90
21744;DHT22;11034;48.556;9.342;2023-04-29T09:05:12;17.00;99.90
21744;DHT22;11034;48.556;9.342;2023-04-29T09:07:41;16.50;99.90
21744;DHT22;11034;48.556;9.342;2023-04-29T09:10:10;16.10;99.90
21744;DHT22;11034;48.556;9.342;2023-04-29T09:12:38;15.80;99.90
21744;DHT22;11034;48.556;9.342;2023-04-29T09:15:09;15.60;99.90
21744;DHT22;11034;48.556;9.342;2023-04-29T09:17:40;15.80;99.90
21744;DHT22;11034;48.556;9.342;2023-04-29T09:20:28;16.30;99.90
21744;DHT22;11034;48.556;9.342;2023-04-29T09:22:58;16.90;99.90
21744;DHT22;11034;48.556;9.342;2023-04-29T09:25:27;17.00;99.90
21744;DHT22;11034;48.556;9.342;2023-04-29T09:27:55;17.30;99.90
21744;DHT22;11034;48.556;9.342;2023-04-29T09:30:25;17.40;99.90
21744;DHT22;11034;48.556;9.342;2023-04-29T09:33:04;17.20;99.90
21744;DHT22;11034;48.556;9.342;2023-04-29T09:35:33;17.00;99.90
21744;DHT22;11034;48.556;9.342;2023-04-29T09:38:10;16.80;99.90
21744;DHT22;11034;48.556;9.342;2023-04-29T09:40:39;16.80;99.90
21744;DHT22;11034;48.556;9.342;2023-04-29T09:43:24;16.90;99.90
21744;DHT22;11034;48.556;9.342;2023-04-29T09:45:54;17.00;99.90
21744;DHT22;11034;48.556;9.342;2023-04-29T09:48:30;17.00;99.90
21744;DHT22;11034;48.556;9.342;2023-04-29T09:51:00;17.50;99.90
21744;DHT22;11034;48.556;9.342;2023-04-29T09:53:30;17.70;99.90
21744;DHT22;11034;48.556;9.342;2023-04-29T09:55:59;17.40;99.90
21744;DHT22;11034;48.556;9.342;2023-04-29T09:58:29;17.10;99.90
21744;DHT22;11034;48.556;9.342;2023-04-29T10:01:02;17.10;99.90
21744;DHT22;11034;48.556;9.342;2023-04-29T10:03:32;16.70;99.90
21744;DHT22;11034;48.556;9.342;2023-04-29T10:06:01;16.90;99.90
21744;DHT22;11034;48.556;9.342;2023-04-29T10:08:30;17.10;99.90
21744;DHT22;11034;48.556;9.342;2023-04-29T10:11:01;17.20;99.90
21744;DHT22;11034;48.556;9.342;2023-04-29T10:13:30;17.30;99.90
21744;DHT22;11034;48.556;9.342;2023-04-29T10:16:10;17.40;99.90
21744;DHT22;11034;48.556;9.342;2023-04-29T10:18:40;17.30;99.90
21744;DHT22;11034;48.556;9.342;2023-04-29T10:21:12;17.20;99.90
21744;DHT22;11034;48.556;9.342;2023-04-29T10:23:42;17.10;99.90
21744;DHT22;11034;48.556;9.342;2023-04-29T10:26:11;17.00;99.90
21744;DHT22;11034;48.556;9.342;2023-04-29T10:28:41;16.90;99.90
21744;DHT22;11034;48.556;9.342;2023-04-29T10:31:13;17.00;99.90
21744;DHT22;11034;48.556;9.342;2023-04-29T10:33:44;17.20;99.90
21744;DHT22;11034;48.556;9.342;2023-04-29T10:36:13;17.50;99.90
21744;DHT22;11034;48.556;9.342;2023-04-29T10:38:45;17.70;99.90
21744;DHT22;11034;48.556;9.342;2023-04-29T10:41:19;17.90;99.90
21744;DHT22;11034;48.556;9.342;2023-04-29T10:43:48;18.00;99.90
21744;DHT22;11034;48.556;9.342;2023-04-29T10:46:19;18.10;99.90
21744;DHT22;11034;48.556;9.342;2023-04-29T10:48:48;17.70;99.90
21744;DHT22;11034;48.556;9.342;2023-04-29T10:51:28;17.60;99.90
21744;DHT22;11034;48.556;9.342;2023-04-29T10:54:03;17.40;99.90
21744;DHT22;11034;48.556;9.342;2023-04-29T10:56:43;17.40;99.90
21744;DHT22;11034;48.556;9.342;2023-04-29T10:59:13;17.40;99.90
21744;DHT22;11034;48.556;9.342;2023-04-29T11:01:47;17.50;99.90
21744;DHT22;11034;48.556;9.342;2023-04-29T11:04:17;17.20;99.90
21744;DHT22;11034;48.556;9.342;2023-04-29T11:06:47;17.40;99.90
21744;DHT22;11034;48.556;9.342;2023-04-29T11:09:19;17.30;99.90
21744;DHT22;11034;48.556;9.342;2023-04-29T11:11:56;17.10;99.90
21744;DHT22;11034;48.556;9.342;2023-04-29T11:14:31;17.10;99.90
21744;DHT22;11034;48.556;9.342;2023-04-29T11:17:02;17.30;99.90
21744;DHT22;11034;48.556;9.342;2023-04-29T11:19:31;17.50;99.90
21744;DHT22;11034;48.556;9.342;2023-04-29T11:22:11;17.60;99.90
21744;DHT22;11034;48.556;9.342;2023-04-29T11:24:49;17.70;99.90
21744;DHT22;11034;48.556;9.342;2023-04-29T11:27:19;17.90;99.90
21744;DHT22;11034;48.556;9.342;2023-04-29T11:29:49;17.70;99.90
21744;DHT22;11034;48.556;9.342;2023-04-29T11:32:21;17.40;99.90
21744;DHT22;11034;48.556;9.342;2023-04-29T11:34:50;16.80;99.90
21744;DHT22;11034;48.556;9.342;2023-04-29T11:37:22;16.80;99.90
21744;DHT22;11034;48.556;9.342;2023-04-29T11:39:51;16.70;99.90
21744;DHT22;11034;48.556;9.342;2023-04-29T11:42:24;17.00;99.90
21744;DHT22;11034;48.556;9.342;2023-04-29T11:44:53;17.30;99.90
21744;DHT22;11034;48.556;9.342;2023-04-29T11:47:26;17.40;99.90
21744;DHT22;11034;48.556;9.342;2023-04-29T11:50:01;17.80;99.90
21744;DHT22;11034;48.556;9.342;2023-04-29T11:52:30;18.30;99.90
21744;DHT22;11034;48.556;9.342;2023-04-29T11:54:58;18.00;99.90
21744;DHT22;11034;48.556;9.342;2023-04-29T11:57:26;17.80;99.90
21744;DHT22;11034;48.556;9.342;2023-04-29T11:59:55;17.60;99.90
21744;DHT22;11034;48.556;9.342;2023-04-29T12:02:29;17.30;99.90
21744;DHT22;11034;48.556;9.342;2023-04-29T12:04:58;17.20;99.90
21744;DHT22;11034;48.556;9.342;2023-04-29T12:07:28;17.10;99.90
21744;DHT22;11034;48.556;9.342;2023-04-29T12:09:56;16.90;99.90
21744;DHT22;11034;48.556;9.342;2023-04-29T12:12:25;17.20;99.90
21744;DHT22;11034;48.556;9.342;2023-04-29T12:14:55;17.30;99.90
21744;DHT22;11034;48.556;9.342;2023-04-29T12:17:23;17.20;99.90
21744;DHT22;11034;48.556;9.342;2023-04-29T12:19:53;17.20;99.90
21744;DHT22;11034;48.556;9.342;2023-04-29T12:22:21;17.00;99.90
21744;DHT22;11034;48.556;9.342;2023-04-29T12:24:51;17.00;99.90
21744;DHT22;11034;48.556;9.342;2023-04-29T12:27:20;17.10;99.90
21744;DHT22;11034;48.556;9.342;2023-04-29T12:29:51;17.10;99.90
21744;DHT22;11034;48.556;9.342;2023-04-29T12:32:22;17.20;99.90
21744;DHT22;11034;48.556;9.342;2023-04-29T12:34:52;17.40;99.90
21744;DHT22;11034;48.556;9.342;2023-04-29T12:37:21;17.50;99.90
21744;DHT22;11034;48.556;9.342;2023-04-29T12:39:49;17.20;99.90
21744;DHT22;11034;48.556;9.342;2023-04-29T12:42:18;17.00;99.90
21744;DHT22;11034;48.556;9.342;2023-04-29T12:44:47;16.90;99.90
21744;DHT22;11034;48.556;9.342;2023-04-29T12:47:15;16.70;99.90
21744;DHT22;11034;48.556;9.342;2023-04-29T12:49:44;17.00;99.90
21744;DHT22;11034;48.556;9.342;2023-04-29T12:52:14;17.10;99.90
21744;DHT22;11034;48.556;9.342;2023-04-29T12:54:42;17.30;99.90
21744;DHT22;11034;48.556;9.342;2023-04-29T12:57:10;17.20;99.90
21744;DHT22;11034;48.556;9.342;2023-04-29T12:59:40;17.10;99.90
21744;DHT22;11034;48.556;9.342;2023-04-29T13:02:08;17.30;99.90
21744;DHT22;11034;48.556;9.342;2023-04-29T13:04:36;17.30;99.90
21744;DHT22;11034;48.556;9.342;2023-04-29T13:07:05;17.30;99.90
21744;DHT22;11034;48.556;9.342;2023-04-29T13:09:35;17.40;99.90
21744;DHT22;11034;48.556;9.342;2023-04-29T13:12:04;17.10;99.90
21744;DHT22;11034;48.556;9.342;2023-04-29T13:14:35;17.10;99.90
21744;DHT22;11034;48.556;9.342;2023-04-29T13:17:03;17.40;99.90
21744;DHT22;11034;48.556;9.342;2023-04-29T13:22:18;17.00;99.90
21744;DHT22;11034;48.556;9.342;2023-04-29T13:24:48;16.60;99.90
21744;DHT22;11034;48.556;9.342;2023-04-29T13:27:17;16.30;99.90
21744;DHT22;11034;48.556;9.342;2023-04-29T13:29:45;16.80;99.90
21744;DHT22;11034;48.556;9.342;2023-04-29T13:32:13;16.80;99.90
21744;DHT22;11034;48.556;9.342;2023-04-29T13:34:44;17.00;99.90
21744;DHT22;11034;48.556;9.342;2023-04-29T13:37:12;17.00;99.90
21744;DHT22;11034;48.556;9.342;2023-04-29T13:39:39;16.70;99.90
21744;DHT22;11034;48.556;9.342;2023-04-29T13:42:14;16.50;99.90
21744;DHT22;11034;48.556;9.342;2023-04-29T13:44:42;16.20;99.90
21744;DHT22;11034;48.556;9.342;2023-04-29T13:47:19;16.10;99.90
21744;DHT22;11034;48.556;9.342;2023-04-29T13:49:52;16.50;99.90
21744;DHT22;11034;48.556;9.342;2023-04-29T13:52:40;16.70;99.90
21744;DHT22;11034;48.556;9.342;2023-04-29T13:55:11;16.70;99.90
21744;DHT22;11034;48.556;9.342;2023-04-29T13:57:43;16.20;99.90
21744;DHT22;11034;48.556;9.342;2023-04-29T14:00:15;16.20;99.90
21744;DHT22;11034;48.556;9.342;2023-04-29T14:02:46;16.40;99.90
21744;DHT22;11034;48.556;9.342;2023-04-29T14:05:24;16.40;99.90
21744;DHT22;11034;48.556;9.342;2023-04-29T14:07:52;16.40;99.90
21744;DHT22;11034;48.556;9.342;2023-04-29T14:10:20;16.40;99.90
21744;DHT22;11034;48.556;9.342;2023-04-29T14:12:49;16.10;99.90
21744;DHT22;11034;48.556;9.342;2023-04-29T14:15:18;15.70;99.90
21744;DHT22;11034;48.556;9.342;2023-04-29T14:17:47;15.50;99.90
21744;DHT22;11034;48.556;9.342;2023-04-29T14:20:16;15.50;99.90
21744;DHT22;11034;48.556;9.342;2023-04-29T14:22:44;15.60;99.90
21744;DHT22;11034;48.556;9.342;2023-04-29T14:25:12;15.70;99.90
21744;DHT22;11034;48.556;9.342;2023-04-29T14:27:40;16.00;99.90
21744;DHT22;11034;48.556;9.342;2023-04-29T14:30:10;15.70;99.90
21744;DHT22;11034;48.556;9.342;2023-04-29T14:32:38;15.50;99.90
21744;DHT22;11034;48.556;9.342;2023-04-29T14:35:07;15.50;99.90
21744;DHT22;11034;48.556;9.342;2023-04-29T14:37:35;15.50;99.90
21744;DHT22;11034;48.556;9.342;2023-04-29T14:40:04;15.50;99.90
21744;DHT22;11034;48.556;9.342;2023-04-29T14:42:33;15.30;99.90
21744;DHT22;11034;48.556;9.342;2023-04-29T14:45:01;15.40;99.90
21744;DHT22;11034;48.556;9.342;2023-04-29T14:47:30;15.40;99.90
21744;DHT22;11034;48.556;9.342;2023-04-29T14:49:58;15.50;99.90
21744;DHT22;11034;48.556;9.342;2023-04-29T14:52:26;15.40;99.90
21744;DHT22;11034;48.556;9.342;2023-04-29T14:54:54;15.20;99.90
21744;DHT22;11034;48.556;9.342;2023-04-29T14:57:22;15.10;99.90
21744;DHT22;11034;48.556;9.342;2023-04-29T14:59:50;15.30;99.90
21744;DHT22;11034;48.556;9.342;2023-04-29T15:02:18;15.40;99.90
21744;DHT22;11034;48.556;9.342;2023-04-29T15:04:48;15.50;99.90
21744;DHT22;11034;48.556;9.342;2023-04-29T15:07:16;15.10;99.90
21744;DHT22;11034;48.556;9.342;2023-04-29T15:09:44;15.10;99.90
21744;DHT22;11034;48.556;9.342;2023-04-29T15:12:13;15.00;99.90
21744;DHT22;11034;48.556;9.342;2023-04-29T15:14:43;14.80;99.90
21744;DHT22;11034;48.556;9.342;2023-04-29T15:17:11;14.80;99.90
21744;DHT22;11034;48.556;9.342;2023-04-29T15:19:39;14.60;99.90
21744;DHT22;11034;48.556;9.342;2023-04-29T15:22:08;14.60;99.90
21744;DHT22;11034;48.556;9.342;2023-04-29T15:24:36;14.50;99.90
21744;DHT22;11034;48.556;9.342;2023-04-29T15:27:05;14.50;99.90
21744;DHT22;11034;48.556;9.342;2023-04-29T15:29:33;14.50;99.90
21744;DHT22;11034;48.556;9.342;2023-04-29T15:32:03;14.60;99.90
21744;DHT22;11034;48.556;9.342;2023-04-29T15:34:31;14.50;99.90
21744;DHT22;11034;48.556;9.342;2023-04-29T15:36:59;14.50;99.90
21744;DHT22;11034;48.556;9.342;2023-04-29T15:39:29;14.70;99.90
21744;DHT22;11034;48.556;9.342;2023-04-29T15:41:58;14.50;99.90
21744;DHT22;11034;48.556;9.342;2023-04-29T15:44:26;14.50;99.90
21744;DHT22;11034;48.556;9.342;2023-04-29T15:46:53;14.50;99.90